createdAt,value
2022-11-22T05:17:56.660Z,98119.78
2022-11-22T05:20:23.075Z,98121.16
2022-11-22T05:23:08.235Z,98122.78
2022-11-22T05:25:34.708Z,98130.91
2022-11-22T05:28:01.219Z,98136.69
2022-11-22T05:30:27.664Z,98135.53
2022-11-22T05:32:54.844Z,98133.50
2022-11-22T05:35:21.280Z,98135.78
2022-11-22T05:37:47.685Z,98141.31
2022-11-22T05:40:14.361Z,98140.34
2022-11-22T05:42:40.816Z,98146.06
2022-11-22T05:45:07.923Z,98149.63
2022-11-22T05:47:36.010Z,98158.31
2022-11-22T05:50:09.854Z,98152.34
2022-11-22T05:52:36.447Z,98160.19
2022-11-22T05:55:03.021Z,98168.88
2022-11-22T05:57:31.694Z,98160.56
2022-11-22T05:59:58.241Z,98170.06
2022-11-22T06:02:25.833Z,98170.06
2022-11-22T06:05:42.054Z,98176.03
2022-11-22T06:08:08.464Z,98185.94
2022-11-22T06:10:39.128Z,98182.53
2022-11-22T06:13:05.617Z,98181.81
2022-11-22T06:15:32.045Z,98184.41
2022-11-22T06:17:58.472Z,98182.69
2022-11-22T06:20:25.074Z,98192.31
2022-11-22T06:22:51.501Z,98187.06
2022-11-22T06:25:17.957Z,98192.53
2022-11-22T06:27:44.390Z,98199.78
2022-11-22T06:30:11.392Z,98206.53
2022-11-22T06:32:37.850Z,98223.34
2022-11-22T06:35:04.628Z,98234.66
2022-11-22T06:37:31.263Z,98232.44
2022-11-22T06:39:57.782Z,98231.97
2022-11-22T06:42:24.331Z,98225.66
2022-11-22T06:44:50.754Z,98221.47
2022-11-22T06:47:17.673Z,98223.03
2022-11-22T06:49:45.369Z,98239.38
2022-11-22T06:52:12.192Z,98240.13
2022-11-22T06:54:38.709Z,98250.78
2022-11-22T06:57:05.273Z,98250.16
2022-11-22T06:59:32.171Z,98253.31
2022-11-22T07:02:04.508Z,98247.59
2022-11-22T07:04:32.597Z,98252.44
2022-11-22T07:06:59.013Z,98253.78
2022-11-22T07:09:25.481Z,98256.88
2022-11-22T07:11:51.958Z,98260.50
2022-11-22T07:14:18.496Z,98265.63
2022-11-22T07:16:44.936Z,98262.41
2022-11-22T07:19:11.351Z,98271.19
2022-11-22T07:21:41.966Z,98279.00
2022-11-22T07:24:08.739Z,98278.34
2022-11-22T07:26:35.252Z,98274.06
2022-11-22T07:29:01.704Z,98270.13
2022-11-22T07:31:29.333Z,98274.78
2022-11-22T07:33:57.651Z,98268.22
2022-11-22T07:36:24.671Z,98285.78
2022-11-22T07:38:51.452Z,98288.09
2022-11-22T07:41:19.074Z,98295.53
2022-11-22T07:43:46.818Z,98289.06
2022-11-22T07:46:29.642Z,98286.06
2022-11-22T07:48:56.199Z,98297.78
2022-11-22T07:51:22.692Z,98301.28
2022-11-22T07:53:49.174Z,98290.53
2022-11-22T07:56:16.014Z,98299.47
2022-11-22T07:58:42.682Z,98297.25
2022-11-22T08:01:11.901Z,98304.38
2022-11-22T08:03:39.054Z,98309.19
2022-11-22T08:06:08.048Z,98315.78
2022-11-22T08:08:35.606Z,98327.00
2022-11-22T08:11:02.274Z,98334.81
2022-11-22T08:13:29.289Z,98332.50
2022-11-22T08:15:59.637Z,98331.28
2022-11-22T08:18:28.774Z,98337.91
2022-11-22T08:21:10.540Z,98327.28
2022-11-22T08:23:38.031Z,98327.97
2022-11-22T08:26:05.909Z,98331.50
2022-11-22T08:28:32.638Z,98339.28
2022-11-22T08:31:12.134Z,98346.28
2022-11-22T08:33:39.304Z,98340.38
2022-11-22T08:36:06.649Z,98338.25
2022-11-22T08:38:33.492Z,98344.41
2022-11-22T08:40:59.982Z,98347.59
2022-11-22T08:43:26.422Z,98349.91
2022-11-22T08:45:56.912Z,98344.50
2022-11-22T08:48:30.837Z,98349.16
2022-11-22T08:51:08.588Z,98350.66
2022-11-22T08:53:37.906Z,98342.38
2022-11-22T08:56:10.692Z,98351.81
2022-11-22T08:58:37.435Z,98352.22
2022-11-22T09:01:08.774Z,98355.34
2022-11-22T09:03:36.167Z,98355.13
2022-11-22T09:09:02.795Z,98356.75
2022-11-22T09:11:35.570Z,98360.84
2022-11-22T09:14:02.095Z,98347.97
2022-11-22T09:16:31.448Z,98348.16
2022-11-22T09:18:58.021Z,98350.50
2022-11-22T09:21:24.487Z,98350.28
2022-11-22T09:23:53.456Z,98361.97
2022-11-22T09:26:25.083Z,98362.72
2022-11-22T09:28:53.052Z,98367.41
2022-11-22T09:31:21.838Z,98368.66
2022-11-22T09:33:49.473Z,98364.91
2022-11-22T09:36:18.963Z,98370.66
2022-11-22T09:38:45.852Z,98376.03
2022-11-22T09:41:15.483Z,98378.16
2022-11-22T09:44:07.084Z,98372.25
2022-11-22T09:46:56.955Z,98367.97
2022-11-22T09:49:28.175Z,98368.81
2022-11-22T09:52:07.445Z,98370.88
2022-11-22T09:54:44.937Z,98361.59
2022-11-22T09:57:22.563Z,98362.44
2022-11-22T09:59:58.668Z,98359.34
2022-11-22T10:02:43.364Z,98357.59
2022-11-22T10:05:26.147Z,98345.75
2022-11-22T10:08:01.443Z,98335.53
2022-11-22T10:10:39.434Z,98343.19
2022-11-22T10:13:09.819Z,98343.91
2022-11-22T10:15:40.627Z,98342.31
2022-11-22T10:18:39.488Z,98339.25
2022-11-22T10:21:12.607Z,98337.72
2022-11-22T10:23:41.956Z,98335.97
2022-11-22T10:26:24.009Z,98348.78
2022-11-22T10:29:09.017Z,98328.44
2022-11-22T10:31:55.548Z,98333.72
2022-11-22T10:34:49.799Z,98331.53
2022-11-22T10:37:41.401Z,98333.16
2022-11-22T10:40:25.826Z,98337.88
2022-11-22T10:42:52.143Z,98332.25
2022-11-22T10:45:28.131Z,98339.38
2022-11-22T10:48:06.742Z,98338.44
2022-11-22T10:51:15.681Z,98344.44
2022-11-22T10:54:10.611Z,98341.81
2022-11-22T10:56:53.290Z,98336.66
2022-11-22T10:59:41.103Z,98331.44
2022-11-22T11:02:33.531Z,98342.38
2022-11-22T11:05:04.317Z,98347.28
2022-11-22T11:07:31.815Z,98335.72
2022-11-22T11:10:29.477Z,98336.28
2022-11-22T11:13:12.985Z,98337.88
2022-11-22T11:15:45.432Z,98339.78
2022-11-22T11:18:24.760Z,98338.50
2022-11-22T11:20:52.586Z,98329.84
2022-11-22T11:23:19.406Z,98328.88
2022-11-22T11:25:48.147Z,98334.25
2022-11-22T11:28:21.279Z,98335.78
2022-11-22T11:31:07.280Z,98323.75
2022-11-22T11:33:37.853Z,98330.03
2022-11-22T11:36:11.856Z,98336.78
2022-11-22T11:38:52.530Z,98340.84
2022-11-22T11:41:18.984Z,98339.66
2022-11-22T11:43:46.429Z,98333.88
2022-11-22T11:46:18.693Z,98340.16
2022-11-22T11:48:45.395Z,98333.34
2022-11-22T11:51:37.692Z,98329.78
2022-11-22T11:54:17.273Z,98320.50
2022-11-22T11:56:55.978Z,98326.84
2022-11-22T11:59:30.286Z,98326.28
2022-11-22T12:02:17.648Z,98325.38
2022-11-22T12:05:02.182Z,98323.94
2022-11-22T12:07:38.991Z,98311.75
2022-11-22T12:10:41.089Z,98310.97
2022-11-22T12:13:57.811Z,98313.00
2022-11-22T12:16:26.002Z,98311.28
2022-11-22T12:19:40.539Z,98305.41
2022-11-22T12:22:35.809Z,98322.94
2022-11-22T12:25:37.141Z,98307.84
2022-11-22T12:28:17.095Z,98308.94
2022-11-22T12:30:45.155Z,98307.63
2022-11-22T12:33:19.350Z,98303.06
2022-11-22T12:35:46.668Z,98303.28
2022-11-22T12:38:41.945Z,98314.63
2022-11-22T12:41:13.608Z,98304.09
2022-11-22T12:43:53.427Z,98310.69
2022-11-22T12:46:26.559Z,98319.16
2022-11-22T12:49:44.058Z,98304.38
2022-11-22T12:52:33.104Z,98304.97
2022-11-22T12:55:23.997Z,98298.19
2022-11-22T12:58:38.221Z,98304.38
2022-11-22T13:01:19.974Z,98307.50
2022-11-22T13:04:01.465Z,98297.03
2022-11-22T13:06:36.804Z,98300.06
2022-11-22T13:09:06.960Z,98306.97
2022-11-22T13:11:46.691Z,98301.56
2022-11-22T13:14:21.160Z,98315.19
2022-11-22T13:16:50.813Z,98298.16
2022-11-22T13:19:23.611Z,98305.41
2022-11-22T13:22:16.149Z,98297.50
2022-11-22T13:25:04.027Z,98301.56
2022-11-22T13:27:40.048Z,98296.16
2022-11-22T13:30:18.072Z,98297.56
2022-11-22T13:32:50.403Z,98305.38
2022-11-22T13:35:16.910Z,98294.91
2022-11-22T13:37:46.798Z,98288.03
2022-11-22T13:40:16.412Z,98293.38
2022-11-22T13:42:43.098Z,98279.78
2022-11-22T13:45:25.882Z,98282.53
2022-11-22T13:47:52.671Z,98290.44
2022-11-22T13:50:57.883Z,98293.28
2022-11-22T13:53:28.832Z,98283.78
2022-11-22T13:55:58.148Z,98291.78
2022-11-22T13:58:24.540Z,98292.47
2022-11-22T14:00:57.278Z,98285.28
2022-11-22T14:03:33.883Z,98276.78
2022-11-22T14:06:01.020Z,98266.78
2022-11-22T14:08:37.121Z,98277.22
2022-11-22T14:11:39.060Z,98270.09
2022-11-22T14:14:21.128Z,98279.53
2022-11-22T14:16:54.617Z,98277.00
2022-11-22T14:19:52.115Z,98276.66
2022-11-22T14:22:25.011Z,98273.75
2022-11-22T14:25:21.864Z,98266.88
2022-11-22T14:27:58.503Z,98282.25
2022-11-22T14:30:40.706Z,98287.44
2022-11-22T14:33:18.674Z,98282.81
2022-11-22T14:36:07.092Z,98284.34
2022-11-22T14:38:35.493Z,98281.59
2022-11-22T14:41:30.920Z,98304.34
2022-11-22T14:44:08.052Z,98285.56
2022-11-22T14:46:54.290Z,98289.91
2022-11-22T14:49:39.910Z,98288.34
2022-11-22T14:52:19.914Z,98297.19
2022-11-22T14:54:49.755Z,98292.34
2022-11-22T14:57:20.833Z,98301.31
2022-11-22T15:00:08.635Z,98306.91
2022-11-22T15:03:08.849Z,98304.38
2022-11-22T15:09:17.683Z,98306.06
2022-11-22T15:09:46.560Z,98315.69
2022-11-22T15:12:38.557Z,98298.06
2022-11-22T15:59:44.016Z,98351.28
2022-11-22T16:02:14.965Z,98352.06
2022-11-22T16:04:48.673Z,98352.88
2022-11-22T16:07:37.561Z,98348.28
2022-11-22T16:10:09.146Z,98362.59
2022-11-22T16:12:37.653Z,98365.16
2022-11-22T16:15:27.990Z,98368.03
2022-11-22T16:18:12.969Z,98360.97
2022-11-22T16:21:07.096Z,98373.00
2022-11-22T16:23:35.234Z,98371.91
2022-11-22T16:26:29.334Z,98371.06
2022-11-22T16:29:10.999Z,98367.88
2022-11-22T16:31:38.432Z,98379.06
2022-11-22T16:34:15.558Z,98369.44
2022-11-22T16:36:42.010Z,98371.47
2022-11-22T16:39:08.455Z,98377.34
2022-11-22T16:41:35.106Z,98379.63
2022-11-22T16:44:12.573Z,98382.34
2022-11-22T16:46:40.484Z,98386.78
2022-11-22T16:49:21.585Z,98385.25
2022-11-22T16:51:50.088Z,98398.81
2022-11-22T16:54:19.336Z,98385.81
2022-11-22T16:56:46.118Z,98393.84
2022-11-22T16:59:12.940Z,98396.19
2022-11-22T17:01:43.752Z,98398.53
2022-11-22T17:04:22.457Z,98401.63
2022-11-22T17:06:49.421Z,98406.53
2022-11-22T17:09:15.932Z,98409.91
2022-11-22T17:11:44.148Z,98409.50
2022-11-22T17:14:14.590Z,98404.84
2022-11-22T17:16:41.806Z,98413.09
2022-11-22T17:19:30.285Z,98411.41
2022-11-22T17:21:55.660Z,98409.16
2022-11-22T17:24:23.826Z,98410.94
2022-11-22T17:26:50.301Z,98418.94
2022-11-22T17:29:35.291Z,98416.09
2022-11-22T17:32:03.447Z,98408.09
2022-11-22T17:34:33.894Z,98427.78
2022-11-22T17:37:00.559Z,98416.88
2022-11-22T17:39:27.057Z,98432.31
2022-11-22T17:41:53.511Z,98423.75
2022-11-22T17:44:19.968Z,98420.84
2022-11-22T17:46:47.221Z,98419.97
2022-11-22T17:49:16.255Z,98423.53
2022-11-22T17:51:43.151Z,98424.22
2022-11-22T17:54:09.982Z,98427.69
2022-11-22T17:56:37.496Z,98430.53
2022-11-22T17:59:04.461Z,98419.66
2022-11-22T18:01:31.434Z,98421.31
2022-11-22T18:03:58.076Z,98429.22
2022-11-22T18:06:26.475Z,98426.84
2022-11-22T18:08:53.240Z,98434.09
2022-11-22T18:11:33.922Z,98425.63
2022-11-22T18:14:00.382Z,98438.03
2022-11-22T18:16:28.859Z,98432.59
2022-11-22T18:19:01.390Z,98435.88
2022-11-22T18:21:37.308Z,98439.00
2022-11-22T18:24:27.889Z,98439.19
2022-11-22T18:26:59.251Z,98440.59
2022-11-22T18:29:42.637Z,98438.06
2022-11-22T18:35:01.286Z,98449.97
2022-11-22T18:37:36.576Z,98452.91
2022-11-22T18:40:13.911Z,98457.44
2022-11-22T18:42:58.962Z,98450.78
2022-11-22T18:45:33.417Z,98452.59
2022-11-22T18:48:03.559Z,98456.97
2022-11-22T18:50:34.316Z,98464.28
2022-11-22T18:53:03.765Z,98456.22
2022-11-22T18:55:32.076Z,98455.25
2022-11-22T18:58:17.786Z,98458.25
2022-11-22T19:00:48.077Z,98453.94
2022-11-22T19:03:14.820Z,98458.47
2022-11-22T19:05:46.888Z,98453.63
2022-11-22T19:08:13.580Z,98456.31
2022-11-22T19:10:40.390Z,98462.72
2022-11-22T19:13:08.832Z,98457.56
2022-11-22T19:15:35.704Z,98458.56
2022-11-22T19:18:02.235Z,98451.44
2022-11-22T19:20:53.972Z,98464.06
2022-11-22T19:23:27.441Z,98458.06
2022-11-22T19:25:56.237Z,98463.66
2022-11-22T19:28:27.991Z,98471.41
2022-11-22T19:30:57.331Z,98468.06
2022-11-22T19:36:33.697Z,98475.59
2022-11-22T19:39:03.871Z,98476.75
2022-11-22T19:41:31.340Z,98477.88
2022-11-22T19:44:29.897Z,98479.28
2022-11-22T19:47:28.339Z,98478.91
2022-11-22T19:50:03.497Z,98481.09
2022-11-22T19:55:26.395Z,98490.94
2022-11-22T19:58:12.424Z,98488.22
2022-11-22T20:00:54.068Z,98498.50
2022-11-22T20:03:41.234Z,98496.06
2022-11-22T20:06:13.548Z,98490.69
2022-11-22T20:08:52.632Z,98492.69
2022-11-22T20:11:47.872Z,98499.06
2022-11-22T20:17:08.362Z,98516.75
2022-11-22T20:19:42.036Z,98506.75
2022-11-22T20:22:23.035Z,98509.72
2022-11-22T20:24:50.309Z,98515.81
2022-11-22T20:27:24.792Z,98518.25
2022-11-22T20:30:01.536Z,98512.38
2022-11-22T20:32:41.935Z,98517.78
2022-11-22T20:35:31.622Z,98510.41
2022-11-22T20:38:04.024Z,98521.84
2022-11-22T20:40:50.099Z,98534.63
2022-11-22T20:46:26.586Z,98531.50
2022-11-22T20:49:10.984Z,98541.91
2022-11-22T20:54:34.902Z,98542.53
2022-11-22T20:57:07.930Z,98558.66
2022-11-22T21:00:01.815Z,98549.75
2022-11-22T21:02:33.437Z,98556.13
2022-11-22T21:05:23.473Z,98550.94
2022-11-22T21:08:02.448Z,98553.91
2022-11-22T21:10:39.671Z,98561.13
2022-11-22T21:13:11.644Z,98557.81
2022-11-22T21:15:41.724Z,98563.47
2022-11-22T21:18:25.825Z,98561.88
2022-11-22T21:21:37.717Z,98563.66
2022-11-22T21:24:16.425Z,98568.66
2022-11-22T21:26:45.955Z,98566.50
2022-11-22T21:29:31.991Z,98562.28
2022-11-22T21:32:36.489Z,98575.91
2022-11-22T21:35:12.983Z,98577.38
2022-11-22T21:37:44.062Z,98570.00
2022-11-22T21:40:29.276Z,98566.81
2022-11-22T21:43:07.265Z,98572.41
2022-11-22T21:45:39.936Z,98572.91
2022-11-22T21:48:21.326Z,98574.88
2022-11-22T21:51:05.472Z,98576.50
2022-11-22T21:53:38.260Z,98576.78
2022-11-22T22:02:13.650Z,98583.97
2022-11-22T22:04:50.927Z,98584.06
2022-11-22T22:07:53.003Z,98580.72
2022-11-22T22:10:23.686Z,98587.13
2022-11-22T22:15:49.098Z,98583.16
2022-11-22T22:18:50.468Z,98596.22
2022-11-22T22:21:37.400Z,98591.88
2022-11-22T22:24:18.481Z,98585.97
2022-11-22T22:27:03.591Z,98581.72
2022-11-22T22:30:34.796Z,98597.25
2022-11-22T22:33:33.621Z,98585.75
2022-11-22T22:36:09.444Z,98590.06
2022-11-22T22:39:02.005Z,98604.28
2022-11-22T22:41:36.502Z,98599.28
2022-11-22T22:44:16.425Z,98604.22
2022-11-22T22:46:55.958Z,98595.78
2022-11-22T22:49:36.524Z,98601.88
2022-11-22T22:52:13.990Z,98607.69
2022-11-22T22:55:04.066Z,98610.31
2022-11-22T22:57:33.715Z,98603.84
